33V

Walden-Jackson County Airport

Walden, Colorado, USA
METAR K33V 150815Z AUTO 13006KT 10SM CLR M08/M12 A3034 RMK AO1
Observed Flight Rules
Nov-15 @ 08:15 UTC (22 minutes ago) Visual Flight Rules
Wind Visibility Clouds
130° at 6 knots 10 miles
  • Clear skies
Temperatures Readings
Current -8°C / 18°F
Dewpoint -12°C / 10°F
Humidity 73%
Altimeter 30.34" Hg
Pressure 1027 hPa
Elevation 2484
METAR K33V 150815Z AUTO 13006KT 10SM CLR M08/M12 A3034 RMK AO1
Observed Flight Rules
Nov-15 @ 08:15 UTC
(22 minutes ago)
VFR
Wind Visibility
130° at 6 knots 10 miles
Clouds
  • Clear skies
Temperature Dewpoint
-8°C / 18°F -12°C / 10°F
Humidity Altimeter Pressure
73% 30.34" Hg 1027 hPa